createdAt,value
2018-12-04T00:02:08.843Z,1.03
2018-12-04T00:04:37.352Z,1.20
2018-12-04T00:07:05.982Z,1.10
2018-12-04T00:09:34.336Z,0.80
2018-12-04T00:12:02.689Z,1.00
2018-12-04T00:14:31.105Z,1.10
2018-12-04T00:16:59.568Z,0.87
2018-12-04T00:19:27.967Z,2.03
2018-12-04T00:21:56.342Z,1.70
2018-12-04T00:24:24.838Z,1.23
2018-12-04T00:26:53.359Z,0.93
2018-12-04T00:29:21.701Z,1.17
2018-12-04T00:31:50.105Z,1.00
2018-12-04T00:34:18.444Z,2.30
2018-12-04T00:36:46.775Z,1.03
2018-12-04T00:39:15.197Z,0.90
2018-12-04T00:41:43.528Z,1.00
2018-12-04T00:44:11.876Z,0.90
2018-12-04T00:46:40.443Z,0.90
2018-12-04T00:49:08.835Z,0.83
2018-12-04T00:51:37.576Z,0.60
2018-12-04T00:54:05.908Z,1.07
2018-12-04T00:56:34.332Z,1.20
2018-12-04T00:59:02.683Z,1.00
2018-12-04T01:01:31.013Z,0.93
2018-12-04T01:03:59.583Z,1.17
2018-12-04T01:06:27.916Z,1.07
2018-12-04T01:08:56.281Z,0.70
2018-12-04T01:11:24.684Z,0.90
2018-12-04T01:13:53.032Z,1.20
2018-12-04T01:16:21.391Z,1.00
2018-12-04T01:18:49.789Z,0.97
2018-12-04T01:21:18.155Z,0.80
2018-12-04T01:23:46.477Z,0.90
2018-12-04T01:26:14.863Z,0.90
2018-12-04T01:28:43.317Z,1.00
2018-12-04T01:31:11.758Z,0.87
2018-12-04T01:33:40.160Z,0.90
2018-12-04T01:36:08.521Z,0.80
2018-12-04T01:38:36.844Z,0.90
2018-12-04T01:41:05.204Z,0.90
2018-12-04T01:43:33.643Z,1.00
2018-12-04T01:46:02.019Z,1.07
2018-12-04T01:48:30.348Z,0.70
2018-12-04T01:50:58.933Z,0.87
2018-12-04T01:53:27.311Z,1.00
2018-12-04T01:55:55.660Z,0.87
2018-12-04T01:58:24.009Z,0.80
2018-12-04T02:00:52.367Z,1.00
2018-12-04T02:03:20.760Z,1.23
2018-12-04T02:05:49.128Z,1.13
2018-12-04T02:08:17.480Z,0.73
2018-12-04T02:10:45.869Z,0.90
2018-12-04T02:13:14.195Z,0.80
2018-12-04T02:15:42.654Z,0.90
2018-12-04T02:18:10.959Z,0.70
2018-12-04T02:20:39.343Z,0.93
2018-12-04T02:23:07.785Z,1.00
2018-12-04T02:25:36.117Z,1.53
2018-12-04T02:28:04.460Z,1.00
2018-12-04T02:30:32.943Z,0.73
2018-12-04T02:33:01.264Z,1.40
2018-12-04T02:35:29.612Z,1.00
2018-12-04T02:37:57.944Z,1.10
2018-12-04T02:40:26.294Z,1.00
2018-12-04T02:42:54.616Z,1.23
2018-12-04T02:45:22.970Z,0.77
2018-12-04T02:47:51.375Z,0.83
2018-12-04T02:50:19.788Z,1.10
2018-12-04T02:52:48.123Z,1.07
2018-12-04T02:55:16.462Z,1.20
2018-12-04T02:57:44.918Z,1.30
2018-12-04T03:00:13.283Z,0.80
2018-12-04T03:02:41.723Z,1.20
2018-12-04T03:05:10.049Z,1.07
2018-12-04T03:07:38.464Z,1.20
2018-12-04T03:10:07.299Z,1.00
2018-12-04T03:12:35.625Z,0.87
2018-12-04T03:15:04.032Z,0.80
2018-12-04T03:17:32.397Z,1.60
2018-12-04T03:20:01.061Z,1.23
2018-12-04T03:22:29.440Z,1.00
2018-12-04T03:24:57.794Z,1.10
2018-12-04T03:27:26.332Z,1.00
2018-12-04T03:29:54.649Z,1.17
2018-12-04T03:32:23.008Z,1.00
2018-12-04T03:34:51.342Z,0.97
2018-12-04T03:37:19.782Z,1.10
2018-12-04T03:39:48.119Z,1.00
2018-12-04T03:42:16.496Z,0.90
2018-12-04T03:44:44.846Z,1.30
2018-12-04T03:47:13.386Z,1.07
2018-12-04T03:49:41.757Z,0.80
2018-12-04T03:52:10.124Z,1.13
2018-12-04T03:54:38.461Z,1.10
2018-12-04T03:57:06.815Z,1.30
2018-12-04T03:59:35.164Z,1.30
2018-12-04T04:02:03.639Z,1.13
2018-12-04T04:04:32.352Z,1.00
2018-12-04T04:07:00.696Z,1.27
2018-12-04T04:09:29.161Z,1.20
2018-12-04T04:11:57.557Z,1.20
2018-12-04T04:14:26.039Z,1.30
2018-12-04T04:16:54.377Z,1.13
2018-12-04T04:19:22.728Z,1.00
2018-12-04T04:21:51.147Z,1.10
2018-12-04T04:24:19.663Z,1.20
2018-12-04T04:26:48.076Z,1.10
2018-12-04T04:29:16.404Z,0.87
2018-12-04T04:31:44.796Z,0.90
2018-12-04T04:34:13.233Z,1.57
2018-12-04T04:36:42.069Z,1.23
2018-12-04T04:39:10.429Z,1.33
2018-12-04T04:41:38.873Z,1.20
2018-12-04T04:44:07.181Z,1.33
2018-12-04T04:46:35.552Z,0.97
2018-12-04T04:49:03.882Z,1.40
2018-12-04T04:51:32.217Z,1.40
2018-12-04T04:54:00.667Z,1.53
2018-12-04T04:56:29.105Z,1.57
2018-12-04T04:58:57.434Z,1.37
2018-12-04T05:01:26.157Z,1.33
2018-12-04T05:03:54.518Z,1.57
2018-12-04T05:06:22.857Z,1.47
2018-12-04T05:08:51.380Z,1.20
2018-12-04T05:11:19.815Z,1.57
2018-12-04T05:13:48.123Z,1.47
2018-12-04T05:16:16.485Z,1.30
2018-12-04T05:18:44.809Z,1.47
2018-12-04T05:21:13.165Z,1.90
2018-12-04T05:23:41.654Z,1.47
2018-12-04T05:26:09.971Z,1.60
2018-12-04T05:28:38.353Z,1.47
2018-12-04T05:31:06.775Z,1.47
2018-12-04T05:33:36.519Z,1.70
2018-12-04T05:36:05.023Z,2.20
2018-12-04T05:38:33.400Z,2.37
2018-12-04T05:41:01.909Z,2.57
2018-12-04T05:43:30.264Z,1.60
2018-12-04T05:45:58.660Z,1.70
2018-12-04T05:48:26.996Z,2.57
2018-12-04T05:50:55.440Z,1.87
2018-12-04T05:53:32.160Z,1.60
2018-12-04T05:56:00.496Z,2.13
2018-12-04T05:58:28.920Z,1.63
2018-12-04T06:00:57.317Z,1.80
2018-12-04T06:03:25.648Z,1.53
2018-12-04T06:05:53.996Z,3.00
2018-12-04T06:08:22.436Z,1.50
2018-12-04T06:10:50.816Z,1.00
2018-12-04T06:13:19.140Z,1.87
2018-12-04T06:15:47.813Z,1.20
2018-12-04T06:18:16.247Z,1.50
2018-12-04T06:20:44.561Z,1.00
2018-12-04T06:23:13.044Z,1.10
2018-12-04T06:25:41.416Z,1.33
2018-12-04T06:28:09.993Z,1.20
2018-12-04T06:30:38.333Z,0.93
2018-12-04T06:33:06.647Z,1.20
2018-12-04T06:35:36.365Z,1.30
2018-12-04T06:38:04.706Z,1.00
2018-12-04T06:40:33.045Z,1.30
2018-12-04T06:43:01.418Z,1.10
2018-12-04T06:45:29.735Z,1.10
2018-12-04T06:47:58.152Z,1.20
2018-12-04T06:50:26.477Z,0.83
2018-12-04T06:52:54.847Z,0.90
2018-12-04T06:55:23.192Z,1.10
2018-12-04T06:57:57.388Z,1.10
2018-12-04T07:00:25.724Z,1.20
2018-12-04T07:02:54.160Z,2.87
2018-12-04T07:05:22.517Z,1.60
2018-12-04T07:07:50.985Z,2.30
2018-12-04T07:10:19.445Z,1.23
2018-12-04T07:12:47.776Z,1.00
2018-12-04T07:15:16.112Z,1.43
2018-12-04T07:17:44.475Z,1.30
2018-12-04T07:20:12.913Z,0.90
2018-12-04T07:22:41.269Z,0.90
2018-12-04T07:25:09.604Z,0.90
2018-12-04T07:27:37.920Z,1.40
2018-12-04T07:30:08.176Z,1.17
2018-12-04T07:32:38.865Z,1.03
2018-12-04T07:35:08.316Z,1.10
2018-12-04T07:37:36.639Z,1.23
2018-12-04T07:40:05.651Z,1.20
2018-12-04T07:42:34.085Z,1.20
2018-12-04T07:45:02.422Z,1.30
2018-12-04T07:47:30.756Z,1.80
2018-12-04T07:49:59.135Z,1.90
2018-12-04T07:52:27.645Z,1.20
2018-12-04T07:54:56.427Z,1.40
2018-12-04T07:57:24.770Z,1.53
2018-12-04T07:59:53.349Z,1.67
2018-12-04T08:02:21.715Z,1.70
2018-12-04T08:04:50.020Z,1.77
2018-12-04T08:07:18.481Z,1.60
2018-12-04T08:09:46.829Z,1.73
2018-12-04T08:12:15.169Z,1.77
2018-12-04T08:14:43.543Z,1.70
2018-12-04T08:17:11.909Z,1.30
2018-12-04T08:19:40.365Z,1.70
2018-12-04T08:22:08.704Z,1.80
2018-12-04T08:24:37.109Z,1.47
2018-12-04T08:27:05.472Z,1.90
2018-12-04T08:29:33.824Z,1.83
2018-12-04T08:32:02.236Z,2.17
2018-12-04T08:34:30.648Z,1.33
2018-12-04T08:36:59.111Z,1.90
2018-12-04T08:39:27.540Z,2.23
2018-12-04T08:41:55.936Z,1.63
2018-12-04T08:44:24.282Z,1.87
2018-12-04T08:46:52.649Z,1.63
2018-12-04T08:49:20.971Z,1.93
2018-12-04T08:51:49.442Z,1.70
2018-12-04T08:54:17.774Z,1.93
2018-12-04T08:56:46.165Z,1.97
2018-12-04T08:59:14.607Z,2.00
2018-12-04T09:01:42.962Z,1.70
2018-12-04T09:04:11.328Z,2.30
2018-12-04T09:06:39.744Z,1.70
2018-12-04T09:09:09.890Z,1.53
2018-12-04T09:11:38.271Z,1.60
2018-12-04T09:14:07.601Z,1.67
2018-12-04T09:16:35.956Z,1.80
2018-12-04T09:19:04.417Z,1.80
2018-12-04T09:21:32.853Z,1.60
2018-12-04T09:24:01.221Z,1.70
2018-12-04T09:26:29.694Z,1.47
2018-12-04T09:28:58.069Z,2.00
2018-12-04T09:31:26.436Z,2.80
2018-12-04T09:33:54.800Z,1.67
2018-12-04T09:36:23.159Z,2.07
2018-12-04T09:38:51.540Z,1.73
2018-12-04T09:41:19.920Z,1.90
2018-12-04T09:43:48.417Z,1.67
2018-12-04T09:46:16.780Z,1.60
2018-12-04T09:48:45.234Z,1.60
2018-12-04T09:51:13.644Z,2.03
2018-12-04T09:53:42.005Z,1.90
2018-12-04T09:56:10.376Z,2.00
2018-12-04T09:58:38.790Z,1.80
2018-12-04T10:01:07.175Z,1.83
2018-12-04T10:03:35.509Z,1.90
2018-12-04T10:06:03.863Z,1.87
2018-12-04T10:08:32.388Z,2.10
2018-12-04T10:11:00.885Z,1.80
2018-12-04T10:13:29.287Z,2.20
2018-12-04T10:15:57.722Z,1.53
2018-12-04T10:18:26.202Z,1.90
2018-12-04T10:20:54.629Z,2.10
2018-12-04T10:23:23.060Z,2.37
2018-12-04T10:25:51.831Z,2.30
2018-12-04T10:28:20.855Z,2.40
2018-12-04T10:30:54.615Z,2.53
2018-12-04T10:33:22.952Z,2.37
2018-12-04T10:35:51.304Z,2.07
2018-12-04T10:38:19.680Z,2.00
2018-12-04T10:40:47.994Z,3.03
2018-12-04T10:43:16.417Z,1.93
2018-12-04T10:45:44.745Z,1.93
2018-12-04T10:48:13.062Z,2.07
2018-12-04T10:50:41.412Z,1.90
2018-12-04T10:53:09.736Z,2.37
2018-12-04T10:55:38.091Z,2.20
2018-12-04T10:58:06.507Z,2.33
2018-12-04T11:00:41.323Z,2.57
2018-12-04T11:03:13.599Z,2.60
2018-12-04T11:05:42.709Z,1.97
2018-12-04T11:08:11.055Z,2.40
2018-12-04T11:10:39.469Z,2.47
2018-12-04T11:13:07.804Z,2.83
2018-12-04T11:15:36.164Z,3.17
2018-12-04T11:18:04.638Z,2.53
2018-12-04T11:20:33.015Z,2.30
2018-12-04T11:23:01.347Z,2.30
2018-12-04T11:25:29.684Z,2.10
2018-12-04T11:27:58.147Z,2.47
2018-12-04T11:30:26.452Z,2.67
2018-12-04T11:32:54.799Z,2.80
2018-12-04T11:35:23.147Z,2.73
2018-12-04T11:37:51.497Z,2.43
2018-12-04T11:40:19.828Z,2.60
2018-12-04T11:42:48.213Z,2.33
2018-12-04T11:45:16.531Z,2.60
2018-12-04T11:47:44.860Z,2.57
2018-12-04T11:50:13.219Z,3.23
2018-12-04T11:52:41.544Z,2.57
2018-12-04T11:55:09.875Z,2.53
2018-12-04T11:57:38.621Z,2.80
2018-12-04T12:00:14.991Z,2.47
2018-12-04T12:02:43.346Z,3.10
2018-12-04T12:05:11.675Z,2.37
2018-12-04T12:07:40.040Z,2.67
2018-12-04T12:10:08.376Z,2.43
2018-12-04T12:12:36.757Z,2.83
2018-12-04T12:15:05.768Z,2.83
2018-12-04T12:17:34.110Z,3.33
2018-12-04T12:20:02.679Z,3.47
2018-12-04T12:22:31.012Z,4.40
2018-12-04T12:24:59.433Z,3.97
2018-12-04T12:27:27.875Z,4.10
2018-12-04T12:29:56.297Z,4.13
2018-12-04T12:32:24.744Z,4.00
2018-12-04T12:34:53.111Z,4.13
2018-12-04T12:37:21.529Z,4.00
2018-12-04T12:39:50.026Z,4.63
2018-12-04T12:42:18.351Z,4.87
2018-12-04T12:44:46.699Z,6.00
2018-12-04T12:47:15.138Z,6.43
2018-12-04T12:49:43.510Z,5.37
2018-12-04T12:52:11.849Z,5.67
2018-12-04T12:54:40.254Z,5.77
2018-12-04T12:57:08.579Z,5.03
2018-12-04T12:59:36.972Z,5.23
2018-12-04T13:02:05.405Z,4.90
2018-12-04T13:04:33.753Z,6.13
2018-12-04T13:07:02.077Z,5.20
2018-12-04T13:09:30.436Z,5.47
2018-12-04T13:11:58.824Z,4.87
2018-12-04T13:14:27.171Z,4.40
2018-12-04T13:16:55.620Z,4.93
2018-12-04T13:19:24.295Z,4.63
2018-12-04T13:21:52.651Z,3.83
2018-12-04T13:24:20.981Z,4.57
2018-12-04T13:26:49.734Z,4.00
2018-12-04T13:29:18.170Z,4.00
2018-12-04T13:31:46.565Z,4.50
2018-12-04T13:34:14.896Z,4.47
2018-12-04T13:36:43.564Z,4.20
2018-12-04T13:39:11.934Z,4.20
2018-12-04T13:41:40.374Z,4.30
2018-12-04T13:44:08.696Z,7.30
2018-12-04T13:46:37.251Z,4.97
2018-12-04T13:49:05.649Z,5.97
2018-12-04T13:51:34.148Z,5.60
2018-12-04T13:54:02.509Z,5.40
2018-12-04T13:56:30.860Z,5.73
2018-12-04T13:58:59.297Z,5.90
2018-12-04T14:01:27.695Z,6.60
2018-12-04T14:03:56.112Z,6.10
2018-12-04T14:06:24.498Z,5.30
2018-12-04T14:08:52.969Z,4.30
2018-12-04T14:11:21.413Z,4.97
2018-12-04T14:13:49.943Z,4.33
2018-12-04T14:16:18.524Z,4.90
2018-12-04T14:18:46.948Z,3.87
2018-12-04T14:21:15.284Z,3.30
2018-12-04T14:23:43.772Z,3.33
2018-12-04T14:26:12.197Z,3.83
2018-12-04T14:28:40.671Z,3.67
2018-12-04T14:31:09.097Z,3.30
2018-12-04T14:33:37.539Z,3.83
2018-12-04T14:36:05.860Z,4.03
2018-12-04T14:38:34.525Z,3.73
2018-12-04T14:41:03.004Z,3.23
2018-12-04T14:43:31.448Z,3.43
2018-12-04T14:45:59.898Z,4.00
2018-12-04T14:48:28.379Z,4.60
2018-12-04T14:50:56.880Z,3.23
2018-12-04T14:53:25.226Z,3.10
2018-12-04T14:55:53.729Z,4.00
2018-12-04T14:58:22.171Z,4.03
2018-12-04T15:00:50.679Z,3.30
2018-12-04T15:03:19.119Z,3.80
2018-12-04T15:05:47.568Z,5.50
2018-12-04T15:08:16.924Z,3.07
2018-12-04T15:10:45.517Z,3.23
2018-12-04T15:13:14.125Z,3.30
2018-12-04T15:15:42.732Z,4.50
2018-12-04T15:18:11.296Z,3.33
2018-12-04T15:20:39.724Z,3.80
2018-12-04T15:23:08.116Z,3.27
2018-12-04T15:25:36.667Z,3.87
2018-12-04T15:28:05.167Z,3.53
2018-12-04T15:30:33.518Z,3.07
2018-12-04T15:33:01.960Z,3.10
2018-12-04T15:35:30.719Z,3.20
2018-12-04T15:37:59.385Z,3.83
2018-12-04T15:40:27.887Z,4.13
2018-12-04T15:42:56.333Z,3.57
2018-12-04T15:45:24.764Z,4.13
2018-12-04T15:47:53.242Z,4.37
2018-12-04T15:50:21.699Z,4.10
2018-12-04T15:52:50.185Z,4.10
2018-12-04T15:55:18.634Z,4.90
2018-12-04T15:57:47.087Z,5.47
2018-12-04T16:00:15.455Z,4.40
2018-12-04T16:02:43.960Z,4.17
2018-12-04T16:05:12.406Z,3.93
2018-12-04T16:07:40.773Z,4.33
2018-12-04T16:10:12.994Z,4.40
2018-12-04T16:12:41.414Z,3.90
2018-12-04T16:15:09.758Z,3.70
2018-12-04T16:17:38.197Z,3.93
2018-12-04T16:20:07.612Z,4.60
2018-12-04T16:22:36.103Z,4.20
2018-12-04T16:25:04.725Z,4.90
2018-12-04T16:27:33.085Z,4.93
2018-12-04T16:30:01.505Z,4.67
2018-12-04T16:32:29.883Z,4.27
2018-12-04T16:34:58.220Z,4.70
2018-12-04T16:37:26.629Z,5.40
2018-12-04T16:39:54.985Z,4.80
2018-12-04T16:42:23.537Z,5.20
2018-12-04T16:44:51.932Z,4.67
2018-12-04T16:47:20.279Z,4.57
2018-12-04T16:49:48.692Z,5.33
2018-12-04T16:52:17.018Z,3.53
2018-12-04T16:54:45.364Z,3.43
2018-12-04T16:57:13.800Z,3.20
2018-12-04T16:59:42.261Z,4.70
2018-12-04T17:02:10.593Z,4.40
2018-12-04T17:04:39.186Z,4.30
2018-12-04T17:07:07.641Z,3.83
2018-12-04T17:09:36.404Z,15.77
2018-12-04T17:12:04.769Z,5.30
2018-12-04T17:14:33.206Z,4.97
2018-12-04T17:17:01.816Z,4.47
2018-12-04T17:19:30.168Z,5.70
2018-12-04T17:21:58.556Z,4.90
2018-12-04T17:24:27.197Z,5.20
2018-12-04T17:26:55.600Z,4.80
2018-12-04T17:29:23.965Z,6.10
2018-12-04T17:31:52.479Z,5.50
2018-12-04T17:34:21.069Z,6.00
2018-12-04T17:36:49.419Z,5.30
2018-12-04T17:39:17.931Z,5.53
2018-12-04T17:41:46.408Z,5.70
2018-12-04T17:44:14.847Z,6.10
2018-12-04T17:46:43.321Z,6.47
2018-12-04T17:49:11.688Z,5.90
2018-12-04T17:51:40.039Z,5.30
2018-12-04T17:54:08.631Z,6.43
2018-12-04T17:56:37.540Z,5.37
2018-12-04T17:59:07.017Z,5.53
2018-12-04T18:01:35.825Z,8.63
2018-12-04T18:04:04.269Z,6.17
2018-12-04T18:06:32.659Z,5.93
2018-12-04T18:09:01.072Z,4.80
2018-12-04T18:11:29.456Z,5.70
2018-12-04T18:13:57.788Z,5.73
2018-12-04T18:16:26.172Z,5.87
2018-12-04T18:18:54.536Z,5.57
2018-12-04T18:21:22.899Z,6.37
2018-12-04T18:23:51.312Z,6.10
2018-12-04T18:26:19.686Z,6.40
2018-12-04T18:28:48.093Z,5.00
2018-12-04T18:31:16.560Z,6.00
2018-12-04T18:33:44.952Z,6.43
2018-12-04T18:36:13.318Z,7.90
2018-12-04T18:38:41.793Z,18.67
2018-12-04T18:41:10.149Z,6.60
2018-12-04T18:43:38.628Z,6.27
2018-12-04T18:46:07.161Z,6.13
2018-12-04T18:48:35.702Z,7.13
2018-12-04T18:51:04.132Z,6.53
2018-12-04T18:53:32.549Z,6.50
2018-12-04T18:56:00.916Z,5.73
2018-12-04T18:58:29.335Z,7.43
2018-12-04T19:00:57.973Z,6.50
2018-12-04T19:03:26.359Z,7.37
2018-12-04T19:05:54.818Z,7.57
2018-12-04T19:08:27.629Z,7.53
2018-12-04T19:10:56.043Z,7.30
2018-12-04T19:13:24.435Z,8.63
2018-12-04T19:15:52.900Z,7.93
2018-12-04T19:18:21.248Z,9.60
2018-12-04T19:20:49.700Z,7.73
2018-12-04T19:23:18.036Z,8.33
2018-12-04T19:25:47.117Z,11.17
2018-12-04T19:28:15.543Z,10.27
2018-12-04T19:30:44.184Z,8.83
2018-12-04T19:33:12.544Z,8.80
2018-12-04T19:35:40.956Z,9.80
2018-12-04T19:38:09.360Z,10.00
2018-12-04T19:40:37.973Z,10.27
2018-12-04T19:43:06.428Z,8.87
2018-12-04T19:45:35.105Z,8.07
2018-12-04T19:48:03.587Z,9.40
2018-12-04T19:50:31.986Z,10.40
2018-12-04T19:53:01.365Z,10.40
2018-12-04T19:55:29.714Z,10.63
2018-12-04T19:57:58.372Z,10.10
2018-12-04T20:00:26.821Z,9.90
2018-12-04T20:02:55.184Z,8.80
2018-12-04T20:05:23.662Z,9.40
2018-12-04T20:07:52.157Z,11.00
2018-12-04T20:10:20.623Z,10.90
2018-12-04T20:12:49.027Z,11.57
2018-12-04T20:15:17.408Z,10.40
2018-12-04T20:17:45.927Z,10.33
2018-12-04T20:20:14.646Z,11.20
2018-12-04T20:22:43.131Z,11.30
2018-12-04T20:25:12.633Z,12.50
2018-12-04T20:27:41.276Z,10.83
2018-12-04T20:30:09.671Z,10.00
2018-12-04T20:32:38.155Z,9.40
2018-12-04T20:35:06.613Z,9.33
2018-12-04T20:37:34.988Z,9.97
2018-12-04T20:40:03.548Z,11.40
2018-12-04T20:42:31.984Z,10.93
2018-12-04T20:45:00.460Z,12.00
2018-12-04T20:47:28.956Z,10.50
2018-12-04T20:49:57.513Z,10.83
2018-12-04T20:52:26.645Z,11.10
2018-12-04T20:54:55.131Z,11.83
2018-12-04T20:57:23.544Z,13.20
2018-12-04T20:59:51.977Z,11.90
2018-12-04T21:02:20.399Z,12.90
2018-12-04T21:04:48.803Z,10.00
2018-12-04T21:07:17.156Z,12.13
2018-12-04T21:09:45.551Z,11.00
2018-12-04T21:12:14.060Z,11.70
2018-12-04T21:14:42.423Z,11.60
2018-12-04T21:17:10.835Z,12.83
2018-12-04T21:19:39.404Z,11.77
2018-12-04T21:22:07.776Z,11.33
2018-12-04T21:24:36.190Z,11.90
2018-12-04T21:27:11.640Z,11.90
2018-12-04T21:29:42.417Z,12.27
2018-12-04T21:32:16.278Z,11.63
2018-12-04T21:34:50.092Z,12.63
2018-12-04T21:37:23.845Z,11.97
2018-12-04T21:39:57.896Z,10.57
2018-12-04T21:42:31.656Z,11.80
2018-12-04T21:45:05.424Z,11.47
2018-12-04T21:48:07.322Z,11.80
2018-12-04T21:50:35.699Z,11.50
2018-12-04T21:53:04.121Z,12.47
2018-12-04T21:55:32.546Z,10.83
2018-12-04T21:58:00.947Z,12.00
2018-12-04T22:00:29.396Z,12.50
2018-12-04T22:02:57.779Z,11.60
2018-12-04T22:05:26.116Z,11.13
2018-12-04T22:07:54.916Z,11.47
2018-12-04T22:10:23.279Z,11.80
2018-12-04T22:12:51.663Z,11.43
2018-12-04T22:15:20.191Z,11.13
2018-12-04T22:17:48.532Z,11.23
2018-12-04T22:20:16.921Z,11.10
2018-12-04T22:22:45.271Z,12.60
2018-12-04T22:25:13.715Z,13.47
2018-12-04T22:27:42.065Z,13.83
2018-12-04T22:30:10.447Z,12.87
2018-12-04T22:32:38.884Z,12.87
2018-12-04T22:35:07.314Z,12.73
2018-12-04T22:37:35.670Z,12.93
2018-12-04T22:40:04.539Z,12.17
2018-12-04T22:42:33.053Z,11.90
2018-12-04T22:45:06.693Z,11.57
2018-12-04T22:47:35.042Z,13.73
2018-12-04T22:50:03.620Z,12.93
2018-12-04T22:52:32.027Z,12.80
2018-12-04T22:55:00.356Z,14.73
2018-12-04T22:57:28.730Z,13.30
2018-12-04T22:59:57.116Z,12.10
2018-12-04T23:02:25.537Z,11.90
2018-12-04T23:04:53.868Z,12.77
2018-12-04T23:07:22.437Z,12.70
2018-12-04T23:09:50.836Z,13.10
2018-12-04T23:12:19.189Z,13.23
2018-12-04T23:14:47.600Z,12.87
2018-12-04T23:17:16.009Z,12.30
2018-12-04T23:19:44.319Z,13.40
2018-12-04T23:22:12.741Z,14.20
2018-12-04T23:24:41.364Z,14.13
2018-12-04T23:27:09.718Z,13.50
2018-12-04T23:29:38.273Z,12.97
2018-12-04T23:32:06.797Z,14.20
2018-12-04T23:34:35.160Z,13.00
2018-12-04T23:37:03.500Z,13.50
2018-12-04T23:39:31.899Z,12.63
2018-12-04T23:42:00.572Z,13.90
2018-12-04T23:44:28.926Z,13.70
2018-12-04T23:46:57.372Z,15.30
2018-12-04T23:49:25.721Z,14.40
2018-12-04T23:51:54.197Z,13.77
2018-12-04T23:54:22.523Z,13.90
2018-12-04T23:56:51.088Z,13.53
2018-12-04T23:59:19.486Z,12.83
